Time;durP1;ratioP1;P1;durP2;ratioP2;P2;SDS_P1;SDS_P2;PMS_P1;PMS_P2;Temp;Humidity;BMP_temperature;BMP_pressure;BME280_temperature;BME280_humidity;BME280_pressure;Samples;Min_cycle;Max_cycle;Signal;HPM_P1;HPM_P2
2021/12/13 00:00:43;;;;;;;19.83;8.10;;;;;;;-145.18;100.00;47434.00;5069922;28;20044;-68
2021/12/13 00:03:22;;;;;;;14.17;7.60;;;;;;;-145.18;100.00;47418.38;5070563;28;20047;-68
2021/12/13 00:05:57;;;;;;;15.73;8.47;;;;;;;-145.18;100.00;47432.03;5069764;28;20493;-68
2021/12/13 00:08:35;;;;;;;14.10;7.28;;;;;;;-145.18;100.00;47428.13;5070382;28;20398;-68
2021/12/13 00:11:14;;;;;;;13.20;6.47;;;;;;;-145.18;100.00;47414.47;5069944;28;20094;-68
2021/12/13 00:13:50;;;;;;;17.87;7.40;;;;;;;-145.18;100.00;47420.31;5070445;28;20032;-68
2021/12/13 00:16:29;;;;;;;15.13;6.40;;;;;;;-145.18;100.00;47432.03;5070291;28;20027;-68
2021/12/13 00:18:58;;;;;;;17.27;6.70;;;;;;;-145.18;100.00;47451.56;5069934;28;20060;-69
2021/12/13 00:21:37;;;;;;;13.93;7.10;;;;;;;-145.18;100.00;47414.47;5070016;28;20163;-68
2021/12/13 00:24:11;;;;;;;20.37;7.73;;;;;;;-145.18;100.00;47443.75;5070242;28;20481;-68
2021/12/13 00:26:48;;;;;;;18.53;8.00;;;;;;;-145.18;100.00;47418.38;5069698;28;20119;-68
2021/12/13 00:29:17;;;;;;;16.23;7.27;;;;;;;-145.18;100.00;47430.09;5069764;28;20513;-68
2021/12/13 00:32:05;;;;;;;21.57;8.57;;;;;;;-145.18;100.00;47424.22;5069844;28;20044;-68
2021/12/13 00:34:43;;;;;;;18.97;9.00;;;;;;;-145.18;100.00;47422.28;5069855;28;20056;-68
2021/12/13 00:37:14;;;;;;;19.07;9.00;;;;;;;-145.18;100.00;47418.38;5069938;28;20040;-68
2021/12/13 00:39:50;;;;;;;25.17;9.43;;;;;;;-145.18;100.00;47439.84;5069861;28;20040;-68
2021/12/13 00:42:18;;;;;;;19.67;9.13;;;;;;;-145.18;100.00;47439.84;5069013;28;20370;-69
2021/12/13 00:44:48;;;;;;;22.03;9.27;;;;;;;-145.18;100.00;47437.91;5069089;28;20313;-68
2021/12/13 00:47:21;;;;;;;19.43;9.60;;;;;;;-145.18;100.00;47430.09;5069761;28;20041;-69
2021/12/13 00:49:50;;;;;;;21.53;9.53;;;;;;;-145.18;100.00;47426.19;5051032;28;20505;-68
2021/12/13 00:52:18;;;;;;;22.50;10.10;;;;;;;-145.18;100.00;47435.94;5049323;28;20048;-68
2021/12/13 00:54:45;;;;;;;30.30;12.43;;;;;;;-145.18;100.00;47441.81;5048979;28;20048;-68
2021/12/13 00:57:36;;;;;;;22.43;12.43;;;;;;;-145.18;100.00;47424.22;5049373;28;20051;-68
2021/12/13 01:00:22;;;;;;;26.83;13.13;;;;;;;-145.18;100.00;47422.28;5049458;28;20036;-69
2021/12/13 01:03:00;;;;;;;30.23;14.20;;;;;;;-145.18;100.00;47432.03;5048986;28;20052;-68
2021/12/13 01:05:42;;;;;;;27.60;15.07;;;;;;;-145.18;100.00;47435.94;5049379;28;20033;-68
2021/12/13 01:08:17;;;;;;;30.73;16.00;;;;;;;-145.18;100.00;47430.09;5049211;28;20076;-68
2021/12/13 01:10:55;;;;;;;30.53;15.37;;;;;;;-145.18;100.00;47443.75;5048895;28;20095;-68
2021/12/13 01:13:30;;;;;;;31.93;16.73;;;;;;;-145.18;100.00;47467.22;5049206;28;20604;-68
2021/12/13 01:16:23;;;;;;;;;;;;;;;-145.18;100.00;47430.09;5049600;28;20272;-68
2021/12/13 01:18:59;;;;;;;34.00;17.43;;;;;;;-145.18;100.00;47441.81;5048792;28;20295;-68
2021/12/13 01:21:41;;;;;;;35.30;18.67;;;;;;;-145.18;100.00;47447.66;5048819;28;20043;-69
2021/12/13 01:24:20;;;;;;;36.07;20.40;;;;;;;-145.18;100.00;47441.81;5048805;28;20033;-68
2021/12/13 01:26:53;;;;;;;38.27;20.77;;;;;;;-145.18;100.00;47449.63;5048374;28;20041;-69
2021/12/13 01:29:24;;;;;;;38.13;21.43;;;;;;;-145.18;100.00;47430.09;5048775;28;20266;-69
2021/12/13 01:31:53;;;;;;;43.23;21.17;;;;;;;-145.18;100.00;47435.94;5048654;28;20033;-69
2021/12/13 01:34:19;;;;;;;45.10;23.17;;;;;;;-145.18;100.00;47430.09;5048999;28;20040;-68
2021/12/13 01:37:07;;;;;;;41.90;22.33;;;;;;;-145.18;100.00;47437.91;5047911;28;20044;-69
2021/12/13 01:39:36;;;;;;;37.57;21.73;;;;;;;-145.18;100.00;47486.75;5048431;28;20052;-69
2021/12/13 01:42:09;;;;;;;36.63;22.23;;;;;;;-145.18;100.00;47449.63;5048763;28;20486;-68
2021/12/13 01:44:41;;;;;;;43.90;22.73;;;;;;;-145.18;100.00;47432.03;5048471;28;20045;-69
2021/12/13 01:47:14;;;;;;;36.87;22.27;;;;;;;-145.18;100.00;47435.94;5048615;28;20263;-69
2021/12/13 01:49:44;;;;;;;38.97;21.87;;;;;;;-145.18;100.00;47435.94;5048217;28;20033;-69
2021/12/13 01:52:31;;;;;;;37.20;21.37;;;;;;;-145.18;100.00;47418.38;5048429;28;20044;-69
2021/12/13 01:55:01;;;;;;;34.50;20.23;;;;;;;-145.18;100.00;47430.09;5047271;28;20120;-68
2021/12/13 01:57:40;;;;;;;31.90;20.10;;;;;;;-145.18;100.00;47422.28;5048368;28;20044;-69
2021/12/13 02:00:18;;;;;;;35.57;20.77;;;;;;;-145.18;100.00;47441.81;5048261;28;20040;-69
2021/12/13 02:02:47;;;;;;;34.63;21.60;;;;;;;-145.18;100.00;47447.66;5048010;28;20039;-69
2021/12/13 02:05:21;;;;;;;34.23;21.03;;;;;;;-145.18;100.00;47432.03;5048073;28;20722;-68
2021/12/13 02:07:59;;;;;;;32.90;21.20;;;;;;;-145.18;100.00;47457.44;5048168;28;20033;-69
2021/12/13 02:10:36;;;;;;;34.40;20.57;;;;;;;-145.18;100.00;47445.72;5047956;28;20521;-69
2021/12/13 02:13:16;;;;;;;33.60;20.23;;;;;;;-145.18;100.00;47437.91;5048226;28;20055;-68
2021/12/13 02:18:33;;;;;;;29.50;19.97;;;;;;;-145.18;100.00;47441.81;5047728;28;20421;-68
2021/12/13 02:21:16;;;;;;;30.57;19.83;;;;;;;-145.18;100.00;47449.63;5047644;28;20040;-68
2021/12/13 02:23:46;;;;;;;31.27;20.40;;;;;;;-145.18;100.00;47447.66;5047716;28;20098;-68
2021/12/13 02:26:12;;;;;;;28.83;19.20;;;;;;;-145.18;100.00;47430.09;5047336;28;20278;-69
2021/12/13 02:28:42;;;;;;;32.27;18.90;;;;;;;-145.18;100.00;47439.84;5047463;28;20502;-69
2021/12/13 02:31:10;;;;;;;28.23;18.53;;;;;;;-145.18;100.00;47447.66;5046572;28;20124;-69
2021/12/13 02:33:40;;;;;;;28.80;18.33;;;;;;;-145.18;100.00;47447.66;5047407;28;20064;-69
2021/12/13 02:36:09;;;;;;;26.93;17.57;;;;;;;-145.18;100.00;47443.75;5047905;28;20120;-69
2021/12/13 02:38:37;;;;;;;31.43;17.77;;;;;;;-145.18;100.00;47435.94;5047259;28;20492;-69
2021/12/13 02:41:04;;;;;;;29.53;17.20;;;;;;;-145.18;100.00;47432.03;5047649;28;20033;-69
2021/12/13 02:43:35;;;;;;;25.80;16.37;;;;;;;-145.18;100.00;47432.03;5047401;28;20048;-69
2021/12/13 02:46:01;;;;;;;26.70;15.93;;;;;;;-145.18;100.00;47430.09;5047619;28;20495;-69
2021/12/13 02:48:49;;;;;;;24.77;14.57;;;;;;;-145.18;100.00;47455.47;5047248;28;20277;-69
2021/12/13 02:51:22;;;;;;;25.10;16.23;;;;;;;-145.18;100.00;47445.72;5045364;28;20090;-69
2021/12/13 02:53:54;;;;;;;23.70;15.67;;;;;;;-145.18;100.00;47447.66;5047062;28;20044;-69
2021/12/13 02:56:25;;;;;;;25.03;14.73;;;;;;;-145.18;100.00;47449.63;5047438;28;20789;-69
2021/12/13 02:58:54;;;;;;;23.63;14.70;;;;;;;-145.18;100.00;47445.72;5047001;28;20486;-69
2021/12/13 03:01:27;;;;;;;22.63;14.57;;;;;;;-145.18;100.00;47451.56;5047161;28;20277;-69
2021/12/13 03:04:00;;;;;;;20.63;13.67;;;;;;;-145.18;100.00;47443.75;5047084;28;20040;-69
2021/12/13 03:06:30;;;;;;;22.80;14.73;;;;;;;-145.18;100.00;47449.63;5047135;28;20040;-68
2021/12/13 03:09:12;;;;;;;24.80;14.47;;;;;;;-145.18;100.00;47451.56;5046739;28;20280;-69
2021/12/13 03:11:37;;;;;;;24.97;14.73;;;;;;;-145.18;100.00;47449.63;5045711;28;20102;-69
2021/12/13 03:14:16;;;;;;;24.20;15.03;;;;;;;-145.18;100.00;47439.84;5047137;28;20036;-69
2021/12/13 03:16:50;;;;;;;29.87;16.20;;;;;;;-145.18;100.00;47432.03;5046671;28;20037;-69
2021/12/13 03:19:37;;;;;;;26.63;15.63;;;;;;;-145.18;100.00;47453.53;5046958;28;20273;-69
2021/12/13 03:22:26;;;;;;;26.73;15.50;;;;;;;-145.18;100.00;47445.72;5046652;28;20814;-69
2021/12/13 03:25:10;;;;;;;29.50;16.40;;;;;;;-145.18;100.00;47441.81;5046478;28;20274;-69
2021/12/13 03:28:00;;;;;;;27.93;16.73;;;;;;;-145.18;100.00;47453.53;5046635;28;20049;-69
2021/12/13 03:30:40;;;;;;;27.73;17.80;;;;;;;-145.18;100.00;47441.81;5046898;28;20041;-69
2021/12/13 03:33:09;;;;;;;31.27;20.13;;;;;;;-145.18;100.00;47447.66;5046782;28;20033;-69
2021/12/13 03:35:40;;;;;;;27.13;18.17;;;;;;;-145.18;100.00;47443.75;5046554;28;20278;-70
2021/12/13 03:38:26;;;;;;;26.93;18.73;;;;;;;-145.18;100.00;47465.25;5046677;28;20380;-69
2021/12/13 03:41:01;;;;;;;30.93;19.37;;;;;;;-145.18;100.00;47437.91;5046727;28;20091;-69
2021/12/13 03:43:32;;;;;;;26.43;18.10;;;;;;;-145.18;100.00;47447.66;5046896;28;20099;-69
2021/12/13 03:46:02;;;;;;;28.47;18.87;;;;;;;-145.18;100.00;47453.53;5046872;28;20040;-69
2021/12/13 03:48:29;;;;;;;34.00;19.87;;;;;;;-145.18;100.00;47443.75;5046479;28;20274;-69
2021/12/13 03:50:58;;;;;;;26.60;18.80;;;;;;;-145.18;100.00;47453.53;5046299;28;20594;-69
2021/12/13 03:53:26;;;;;;;32.30;19.70;;;;;;;-145.18;100.00;47437.91;5046471;28;20152;-68
2021/12/13 03:56:02;;;;;;;31.53;20.73;;;;;;;-145.18;100.00;47469.16;5046493;28;20099;-69
2021/12/13 03:58:30;;;;;;;31.05;19.23;;;;;;;-145.18;100.00;47461.34;5046487;28;20077;-69
2021/12/13 04:01:08;;;;;;;35.97;20.17;;;;;;;-145.18;100.00;47459.41;5046280;28;20048;-69
2021/12/13 04:03:34;;;;;;;34.10;19.83;;;;;;;-145.18;100.00;47475.03;5045150;28;20048;-69
2021/12/13 04:06:00;;;;;;;34.17;20.40;;;;;;;-145.18;100.00;47459.41;5046519;28;20087;-69
2021/12/13 04:08:28;;;;;;;28.57;19.63;;;;;;;-145.18;100.00;47451.56;5046564;28;20037;-69
2021/12/13 04:10:58;;;;;;;32.40;19.67;;;;;;;-145.18;100.00;47445.72;5046177;28;20040;-69
2021/12/13 04:13:29;;;;;;;31.87;19.77;;;;;;;-145.18;100.00;47451.56;5046523;28;20060;-69
2021/12/13 04:16:48;;;;;;;30.53;20.37;;;;;;;-145.18;100.00;47447.66;5046192;28;20285;-68
2021/12/13 04:19:20;;;;;;;31.17;20.23;;;;;;;-145.18;100.00;47461.34;5040703;28;20052;-69
2021/12/13 04:21:48;;;;;;;33.77;19.57;;;;;;;-145.18;100.00;47441.81;5050066;28;20041;-69
2021/12/13 04:24:30;;;;;;;32.83;20.60;;;;;;;-145.18;100.00;47453.53;5049719;28;20036;-69
2021/12/13 04:27:03;;;;;;;33.87;20.57;;;;;;;-145.18;100.00;47439.84;5049451;28;20049;-69
2021/12/13 04:29:35;;;;;;;36.57;21.07;;;;;;;-145.18;100.00;47457.44;5049559;28;20258;-69
2021/12/13 04:32:14;;;;;;;35.80;21.57;;;;;;;-145.18;100.00;47447.66;5049938;28;20273;-69
2021/12/13 04:34:42;;;;;;;32.80;21.07;;;;;;;-145.18;100.00;47434.00;5050024;28;20036;-69
2021/12/13 04:37:13;;;;;;;33.33;21.37;;;;;;;-145.18;100.00;47455.47;5049783;28;20048;-69
2021/12/13 04:39:42;;;;;;;37.50;21.50;;;;;;;-145.18;100.00;47453.53;5049432;28;20124;-69
2021/12/13 04:42:11;;;;;;;33.90;21.50;;;;;;;-145.18;100.00;47426.19;5049372;28;20384;-69
2021/12/13 04:44:44;;;;;;;32.17;21.13;;;;;;;-145.18;100.00;47455.47;5049291;28;20048;-69
2021/12/13 04:47:16;;;;;;;32.83;21.47;;;;;;;-145.18;100.00;47461.34;5049612;28;20037;-69
2021/12/13 04:49:51;;;;;;;35.30;21.83;;;;;;;-145.18;100.00;47453.53;5049239;28;20373;-69
2021/12/13 04:52:20;;;;;;;36.27;21.00;;;;;;;-145.18;100.00;47449.63;5049454;28;20266;-69
2021/12/13 04:54:52;;;;;;;32.50;19.83;;;;;;;-145.18;100.00;47447.66;5049367;28;20048;-69
2021/12/13 04:57:20;;;;;;;35.43;22.03;;;;;;;-145.18;100.00;47461.34;5049419;28;20285;-69
2021/12/13 04:59:52;;;;;;;38.73;21.57;;;;;;;-145.18;100.00;47463.31;5048979;28;20047;-69
2021/12/13 05:02:18;;;;;;;36.27;22.17;;;;;;;-145.18;100.00;47457.44;5053384;28;20043;-69
2021/12/13 05:04:44;;;;;;;35.43;20.30;;;;;;;-145.18;100.00;47451.56;5056825;28;20278;-69
2021/12/13 05:07:09;;;;;;;36.67;21.70;;;;;;;-145.18;100.00;47441.81;5057845;28;20065;-69
2021/12/13 05:09:36;;;;;;;36.83;22.37;;;;;;;-145.18;100.00;47461.34;5059767;28;20048;-69
2021/12/13 05:12:01;;;;;;;35.53;21.73;;;;;;;-145.18;100.00;47465.25;5063531;28;20103;-69
2021/12/13 05:14:31;;;;;;;45.87;22.87;;;;;;;-145.18;100.00;47457.44;5053114;28;20684;-69
2021/12/13 05:16:59;;;;;;;36.00;23.00;;;;;;;-145.18;100.00;47449.63;5059442;28;20382;-68
2021/12/13 05:19:34;;;;;;;37.73;22.57;;;;;;;-145.18;100.00;47453.53;5061375;28;20048;-69
2021/12/13 05:22:03;;;;;;;44.97;22.48;;;;;;;-145.18;100.00;47455.47;5057207;28;20261;-68
2021/12/13 05:24:32;;;;;;;42.67;24.17;;;;;;;-145.18;100.00;47443.75;5056851;28;20044;-68
2021/12/13 05:27:07;;;;;;;40.37;23.80;;;;;;;-145.18;100.00;47461.34;5057150;28;20304;-68
2021/12/13 05:29:42;;;;;;;45.40;22.73;;;;;;;-145.18;100.00;47453.53;5054306;28;20266;-68
2021/12/13 05:32:30;;;;;;;42.33;22.58;;;;;;;-145.18;100.00;47465.25;5057767;28;20090;-69
2021/12/13 05:35:08;;;;;;;40.60;23.13;;;;;;;-145.18;100.00;47469.16;5059339;28;20072;-69
2021/12/13 05:37:47;;;;;;;48.27;24.97;;;;;;;-145.18;100.00;47451.56;5066733;28;20258;-69
2021/12/13 05:40:44;;;;;;;49.00;26.03;;;;;;;-145.18;100.00;47459.41;5066724;28;20311;-69
2021/12/13 05:43:24;;;;;;;46.22;26.10;;;;;;;-145.18;100.00;47457.44;5066392;28;20830;-69
2021/12/13 05:45:58;;;;;;;46.37;24.27;;;;;;;-145.18;100.00;47457.44;5060701;28;20040;-68
2021/12/13 05:48:47;;;;;;;48.47;24.33;;;;;;;-145.18;100.00;47447.66;5051759;28;20274;-69
2021/12/13 05:51:37;;;;;;;47.77;25.97;;;;;;;-145.18;100.00;47471.13;5048392;28;20278;-69
2021/12/13 05:54:23;;;;;;;49.80;23.70;;;;;;;-145.18;100.00;47449.63;5048267;28;20325;-69
2021/12/13 05:56:53;;;;;;;47.90;26.20;;;;;;;-145.18;100.00;47463.31;5048106;28;20262;-69
2021/12/13 05:59:56;;;;;;;42.00;22.63;;;;;;;-145.18;100.00;47447.66;5048594;28;20095;-69
2021/12/13 06:02:41;;;;;;;43.20;23.17;;;;;;;-145.18;100.00;47465.25;5045555;28;20272;-69
2021/12/13 06:05:22;;;;;;;46.67;22.83;;;;;;;-145.18;100.00;47445.72;5048011;28;20270;-69
2021/12/13 06:07:58;;;;;;;47.83;25.20;;;;;;;-145.18;100.00;47457.44;5047849;28;20596;-69
2021/12/13 06:10:35;;;;;;;50.10;25.52;;;;;;;-145.18;100.00;47473.06;5049894;28;20260;-69
2021/12/13 06:13:04;;;;;;;54.13;25.43;;;;;;;-145.18;100.00;47465.25;5062404;28;20519;-69
2021/12/13 06:15:33;;;;;;;44.43;22.53;;;;;;;-145.18;100.00;47457.44;5065525;28;20273;-70
2021/12/13 06:18:01;;;;;;;44.80;24.40;;;;;;;-145.18;100.00;47451.56;5066410;28;20306;-71
2021/12/13 06:20:33;;;;;;;46.47;25.03;;;;;;;-145.18;100.00;47461.34;5067087;28;20410;-70
2021/12/13 06:23:25;;;;;;;56.20;25.37;;;;;;;-145.18;100.00;47449.63;5066736;28;20128;-70
2021/12/13 06:26:08;;;;;;;51.23;25.70;;;;;;;-145.18;100.00;47463.31;5063771;28;20304;-71
2021/12/13 06:28:34;;;;;;;51.07;25.70;;;;;;;-145.18;100.00;47445.72;5067529;28;20427;-70
2021/12/13 06:31:08;;;;;;;53.70;25.10;;;;;;;-145.18;100.00;47461.34;5067033;28;20281;-70
2021/12/13 06:33:44;;;;;;;49.10;24.47;;;;;;;-145.18;100.00;47478.94;5067081;28;20300;-71
2021/12/13 06:36:09;;;;;;;49.37;25.70;;;;;;;-145.18;100.00;47476.97;5066358;28;20277;-70
2021/12/13 06:38:41;;;;;;;49.10;24.17;;;;;;;-145.18;100.00;47449.63;5063471;28;20273;-71
2021/12/13 06:41:12;;;;;;;45.93;21.97;;;;;;;-145.18;100.00;47455.47;5065948;28;20186;-70
2021/12/13 06:43:37;;;;;;;43.70;24.13;;;;;;;-145.18;100.00;47465.25;5058588;28;20278;-70
2021/12/13 06:46:08;;;;;;;43.80;24.00;;;;;;;-145.18;100.00;47439.84;5057424;28;20276;-70
2021/12/13 06:48:43;;;;;;;50.00;23.60;;;;;;;-145.18;100.00;47459.41;5066463;28;20497;-70
2021/12/13 06:51:13;;;;;;;45.08;22.73;;;;;;;-145.18;100.00;47443.75;5061957;28;20427;-70
2021/12/13 06:53:57;;;;;;;47.13;23.10;;;;;;;-145.18;100.00;47461.34;5051991;28;20443;-70
2021/12/13 06:56:31;;;;;;;49.20;21.80;;;;;;;-145.18;100.00;47447.66;5045932;28;20766;-70
2021/12/13 06:58:59;;;;;;;49.67;22.63;;;;;;;-145.18;100.00;47461.34;5062436;28;20312;-70
2021/12/13 07:01:30;;;;;;;46.93;22.70;;;;;;;-145.18;100.00;47451.56;5066037;28;20285;-70
2021/12/13 07:04:00;;;;;;;45.47;23.13;;;;;;;-145.18;100.00;47447.66;5064929;28;20270;-70
2021/12/13 07:06:27;;;;;;;43.13;22.03;;;;;;;-145.18;100.00;47461.34;5064360;28;20265;-70
2021/12/13 07:09:10;;;;;;;47.50;22.67;;;;;;;-145.18;100.00;47463.31;5064600;28;20277;-70
2021/12/13 07:11:45;;;;;;;35.23;19.90;;;;;;;-145.18;100.00;47459.41;5065504;28;20277;-72
2021/12/13 07:14:14;;;;;;;39.67;20.77;;;;;;;-145.18;100.00;47467.22;5066635;28;20385;-70
2021/12/13 07:16:42;;;;;;;39.17;20.77;;;;;;;-145.18;100.00;47449.63;5052870;28;20285;-70
2021/12/13 07:19:11;;;;;;;44.77;21.77;;;;;;;-145.18;100.00;47447.66;5063730;28;20322;-70
2021/12/13 07:21:49;;;;;;;43.10;20.53;;;;;;;-145.18;100.00;47457.44;5064740;28;20289;-70
2021/12/13 07:24:18;;;;;;;47.10;20.83;;;;;;;-145.18;100.00;47451.56;5066022;28;20273;-70
2021/12/13 07:26:49;;;;;;;46.17;20.87;;;;;;;-145.18;100.00;47461.34;5064932;28;20277;-70
2021/12/13 07:29:35;;;;;;;45.43;22.13;;;;;;;-145.18;100.00;47453.53;5065086;28;20273;-70
2021/12/13 07:32:20;;;;;;;45.13;21.02;;;;;;;-145.18;100.00;47447.66;5066111;28;20649;-70
2021/12/13 07:35:07;;;;;;;49.00;21.80;;;;;;;-145.18;100.00;47459.41;5051493;28;20043;-70
2021/12/13 07:37:34;;;;;;;;;;;;;;;-145.18;100.00;47461.34;5067059;28;20245;-70
2021/12/13 07:40:20;;;;;;;46.07;20.77;;;;;;;-145.18;100.00;47449.63;5066099;28;20381;-70
2021/12/13 07:43:06;;;;;;;;;;;;;;;-145.18;100.00;47465.25;5066295;28;20658;-70
2021/12/13 07:45:40;;;;;;;43.50;20.30;;;;;;;-145.18;100.00;47441.81;5064819;28;19916;-70
2021/12/13 07:48:20;;;;;;;45.33;20.77;;;;;;;-145.18;100.00;47469.16;5065790;28;20607;-70
2021/12/13 07:50:58;;;;;;;45.83;21.77;;;;;;;-145.18;100.00;47455.47;5060344;28;20801;-70
2021/12/13 07:53:26;;;;;;;49.30;21.13;;;;;;;-145.18;100.00;47453.53;5066055;28;20269;-70
2021/12/13 07:55:52;;;;;;;39.77;20.57;;;;;;;-145.18;100.00;47461.34;5069255;28;20304;-70
2021/12/13 07:58:34;;;;;;;41.37;20.43;;;;;;;-145.18;100.00;47467.22;5069243;28;20316;-70
2021/12/13 08:01:11;;;;;;;51.10;21.20;;;;;;;-145.18;100.00;47461.34;5068809;28;20036;-70
2021/12/13 08:03:45;;;;;;;43.90;20.83;;;;;;;-145.18;100.00;47457.44;5059580;28;20355;-70
2021/12/13 08:06:11;;;;;;;53.43;22.83;;;;;;;-145.18;100.00;47445.72;5061935;28;20420;-70
2021/12/13 08:08:46;;;;;;;42.80;20.37;;;;;;;-145.18;100.00;47449.63;5054379;28;20284;-70
2021/12/13 08:11:12;;;;;;;43.53;20.40;;;;;;;-145.18;100.00;47473.06;5069254;28;20025;-70
2021/12/13 08:13:37;;;;;;;40.30;19.23;;;;;;;-145.18;100.00;47449.63;5067464;28;20051;-70
2021/12/13 08:16:08;;;;;;;45.10;20.97;;;;;;;-145.18;100.00;47457.44;5064898;28;20505;-70
2021/12/13 08:18:33;;;;;;;45.03;20.80;;;;;;;-145.18;100.00;47459.41;5068238;28;20040;-70
2021/12/13 08:21:20;;;;;;;44.37;20.73;;;;;;;-145.18;100.00;47467.22;5068954;28;20273;-70
2021/12/13 08:23:51;;;;;;;45.40;20.60;;;;;;;-145.18;100.00;47449.63;5069168;28;20036;-70
2021/12/13 08:26:26;;;;;;;41.07;20.40;;;;;;;-145.18;100.00;47457.44;5068967;28;20274;-70
2021/12/13 08:28:55;;;;;;;35.90;17.35;;;;;;;-145.18;100.00;47443.75;5068979;28;20277;-70
2021/12/13 08:31:30;;;;;;;42.70;19.20;;;;;;;-145.18;100.00;47459.41;5057807;28;20045;-70
2021/12/13 08:34:03;;;;;;;37.45;18.60;;;;;;;-145.18;100.00;47461.34;5060377;28;20762;-70
2021/12/13 08:36:36;;;;;;;40.87;19.60;;;;;;;-145.18;100.00;47449.63;5068404;28;20047;-70
2021/12/13 08:39:11;;;;;;;39.60;18.30;;;;;;;-145.18;100.00;47451.56;5069285;28;20040;-70
2021/12/13 08:41:39;;;;;;;38.90;18.87;;;;;;;-145.18;100.00;47449.63;5068582;28;20315;-70
2021/12/13 08:44:11;;;;;;;36.53;17.93;;;;;;;-145.18;100.00;47467.22;5067329;28;21096;-70
2021/12/13 08:46:51;;;;;;;34.83;17.40;;;;;;;-145.18;100.00;47430.09;5068334;28;20385;-70
2021/12/13 08:49:40;;;;;;;36.50;19.43;;;;;;;-145.18;100.00;47459.41;5067917;28;20784;-70
2021/12/13 08:52:27;;;;;;;38.13;17.80;;;;;;;-145.18;100.00;47451.56;5061907;28;20277;-70
2021/12/13 08:54:53;;;;;;;34.37;17.03;;;;;;;-145.18;100.00;47459.41;5068087;28;20784;-70
2021/12/13 08:57:43;;;;;;;36.27;16.77;;;;;;;-145.18;100.00;47475.03;5064456;28;20277;-70
2021/12/13 09:00:11;;;;;;;37.63;15.97;;;;;;;-145.18;100.00;47437.91;5067025;28;20523;-70
2021/12/13 09:02:41;;;;;;;38.87;17.63;;;;;;;-145.18;100.00;47447.66;5067373;28;20258;-70
2021/12/13 09:05:27;;;;;;;38.00;17.23;;;;;;;-145.18;100.00;47461.34;5049931;28;20277;-70
2021/12/13 09:07:59;;;;;;;35.92;16.60;;;;;;;-145.18;100.00;47465.25;5067679;28;20258;-70
2021/12/13 09:10:39;;;;;;;37.13;16.90;;;;;;;-145.18;100.00;47449.63;5067455;28;20401;-70
2021/12/13 09:13:05;;;;;;;32.90;16.47;;;;;;;-145.18;100.00;47459.41;5057434;28;20262;-70
2021/12/13 09:15:34;;;;;;;36.10;16.80;;;;;;;-145.18;100.00;47443.75;5067163;28;20067;-70
2021/12/13 09:18:00;;;;;;;31.27;15.87;;;;;;;-145.18;100.00;47465.25;5067884;28;20707;-70
2021/12/13 09:20:33;;;;;;;37.30;16.93;;;;;;;-145.18;100.00;47447.66;5067826;28;20253;-70
2021/12/13 09:23:25;;;;;;;35.60;16.17;;;;;;;-145.18;100.00;47469.16;5067251;28;20265;-70
2021/12/13 09:26:05;;;;;;;34.37;15.73;;;;;;;-145.18;100.00;47453.53;5067246;28;20558;-70
2021/12/13 09:28:37;;;;;;;30.43;14.93;;;;;;;-145.18;100.00;47447.66;5067963;28;20286;-70
2021/12/13 09:31:11;;;;;;;30.73;14.80;;;;;;;-145.18;100.00;47459.41;5068075;28;20309;-70
2021/12/13 09:33:45;;;;;;;29.50;15.50;;;;;;;-145.18;100.00;47447.66;5067484;28;20082;-69
2021/12/13 09:36:14;;;;;;;36.40;15.90;;;;;;;-145.18;100.00;47426.19;5067677;28;20269;-69
2021/12/13 09:38:45;;;;;;;32.53;16.00;;;;;;;-145.18;100.00;47449.63;5063445;28;20257;-69
2021/12/13 09:41:19;;;;;;;35.20;15.23;;;;;;;-145.18;100.00;47465.25;5059635;28;20115;-69
2021/12/13 09:44:13;;;;;;;32.33;15.13;;;;;;;-145.18;100.00;47453.53;5059087;28;20257;-70
2021/12/13 09:46:48;;;;;;;31.57;14.87;;;;;;;-145.18;100.00;47441.81;5047816;28;20128;-69
2021/12/13 09:49:19;;;;;;;32.78;14.77;;;;;;;-145.18;100.00;47434.00;5054358;28;20280;-70
2021/12/13 09:52:01;;;;;;;31.27;14.50;;;;;;;-145.18;100.00;47445.72;5067252;28;20032;-70
2021/12/13 09:54:34;;;;;;;29.27;13.90;;;;;;;-145.18;100.00;47449.63;5067686;28;20059;-70
2021/12/13 09:57:04;;;;;;;31.77;14.60;;;;;;;-145.18;100.00;47439.84;5067821;28;20377;-70
2021/12/13 09:59:42;;;;;;;33.50;15.17;;;;;;;-145.18;100.00;47445.72;5067799;28;20081;-70
2021/12/13 10:02:19;;;;;;;31.57;14.73;;;;;;;-145.18;100.00;47441.81;5067731;28;20052;-70
2021/12/13 10:04:45;;;;;;;31.50;14.80;;;;;;;-145.18;100.00;47451.56;5066964;28;20060;-70
2021/12/13 10:07:18;;;;;;;28.00;14.53;;;;;;;-145.18;100.00;47453.53;5065063;28;20483;-70
2021/12/13 10:09:49;;;;;;;30.07;13.30;;;;;;;-145.18;100.00;47445.72;5047401;28;20266;-70
2021/12/13 10:12:41;;;;;;;26.50;13.07;;;;;;;-145.18;100.00;47451.56;5047649;28;20033;-70
2021/12/13 10:15:14;;;;;;;28.73;13.80;;;;;;;-145.18;100.00;47441.81;5056566;28;20532;-70
2021/12/13 10:17:46;;;;;;;25.63;12.53;;;;;;;-145.18;100.00;47445.72;5067354;28;20269;-70
2021/12/13 10:20:22;;;;;;;23.33;12.83;;;;;;;-145.18;100.00;47453.53;5067493;28;20122;-70
2021/12/13 10:22:48;;;;;;;;;;;;;;;-145.18;100.00;47424.22;5067015;28;20278;-70
2021/12/13 10:25:35;;;;;;;27.90;11.60;;;;;;;-145.18;100.00;47449.63;5066896;28;20292;-70
2021/12/13 10:28:06;;;;;;;23.53;13.07;;;;;;;-145.18;100.00;47447.66;5067054;28;20067;-70
2021/12/13 10:30:39;;;;;;;22.80;11.87;;;;;;;-145.18;100.00;47453.53;5059921;28;20106;-70
2021/12/13 10:33:07;;;;;;;25.20;11.77;;;;;;;-145.18;100.00;47439.84;5064033;28;20043;-71
2021/12/13 10:35:37;;;;;;;22.20;11.70;;;;;;;-145.18;100.00;47434.00;5067089;28;20060;-70
2021/12/13 10:38:12;;;;;;;23.90;11.33;;;;;;;-145.18;100.00;47437.91;5058801;28;20094;-70
2021/12/13 10:41:11;;;;;;;28.58;13.32;;;;;;;-145.18;100.00;47422.28;5066857;28;20064;-70
2021/12/13 10:43:43;;;;;;;21.33;10.57;;;;;;;-145.18;100.00;47426.19;5065913;28;20519;-70
2021/12/13 10:46:13;;;;;;;30.53;13.00;;;;;;;-145.18;100.00;47453.53;5066268;28;20489;-70
2021/12/13 10:48:45;;;;;;;24.37;11.37;;;;;;;-145.18;100.00;47441.81;5044777;28;20306;-70
2021/12/13 10:51:38;;;;;;;23.37;11.87;;;;;;;-145.18;100.00;47447.66;5062306;28;20032;-70
2021/12/13 10:54:09;;;;;;;23.80;11.20;;;;;;;-145.18;100.00;47447.66;5066940;28;20036;-70
2021/12/13 10:56:44;;;;;;;24.23;10.73;;;;;;;-145.18;100.00;47432.03;5066097;28;20754;-70
2021/12/13 10:59:17;;;;;;;25.67;11.00;;;;;;;-145.18;100.00;47437.91;5066634;28;20036;-70
2021/12/13 11:01:47;;;;;;;21.80;10.20;;;;;;;-145.18;100.00;47426.19;5066812;28;20040;-70
2021/12/13 11:04:17;;;;;;;22.90;11.93;;;;;;;-145.18;100.00;47447.66;5066937;28;20273;-70
2021/12/13 11:06:44;;;;;;;22.60;11.50;;;;;;;-145.18;100.00;47457.44;5066155;28;20048;-70
2021/12/13 11:09:16;;;;;;;19.53;10.80;;;;;;;-145.18;100.00;47441.81;5066600;28;20296;-70
2021/12/13 11:11:52;;;;;;;22.77;11.57;;;;;;;-145.18;100.00;47447.66;5066389;28;20051;-70
2021/12/13 11:14:20;;;;;;;21.00;10.30;;;;;;;-145.18;100.00;47424.22;5066657;28;20048;-70
2021/12/13 11:16:51;;;;;;;23.17;11.20;;;;;;;-145.18;100.00;47437.91;5058067;28;20037;-70
2021/12/13 11:19:20;;;;;;;22.13;10.90;;;;;;;-145.18;100.00;47418.38;5054620;28;20041;-70
2021/12/13 11:21:48;;;;;;;20.27;11.00;;;;;;;-145.18;100.00;47441.81;5057909;28;20044;-69
2021/12/13 11:24:20;;;;;;;20.73;10.67;;;;;;;-145.18;100.00;47441.81;5052623;28;20047;-70
2021/12/13 11:26:48;;;;;;;21.90;11.40;;;;;;;-145.18;100.00;47437.91;5066770;28;20594;-70
2021/12/13 11:29:15;;;;;;;18.47;10.43;;;;;;;-145.18;100.00;47437.91;5072395;28;20047;-69